createdAt,value
2023-01-25T00:03:44.524Z,6.90
2023-01-25T00:08:53.068Z,6.90
2023-01-25T00:13:55.278Z,6.90
2023-01-25T00:18:57.190Z,7.00
2023-01-25T00:23:59.117Z,7.00
2023-01-25T00:29:01.502Z,7.00
2023-01-25T00:34:24.486Z,7.00
2023-01-25T00:39:27.060Z,7.00
2023-01-25T00:44:28.955Z,6.90
2023-01-25T00:49:31.783Z,6.90
2023-01-25T00:54:33.775Z,6.80
2023-01-25T00:59:35.897Z,6.80
2023-01-25T01:04:37.971Z,6.80
2023-01-25T01:09:40.027Z,6.80
2023-01-25T01:14:41.878Z,6.90
2023-01-25T01:19:43.744Z,6.90
2023-01-25T01:24:48.295Z,6.90
2023-01-25T01:29:50.130Z,6.80
2023-01-25T01:34:52.083Z,6.80
2023-01-25T01:39:53.963Z,6.80
2023-01-25T01:44:56.069Z,6.80
2023-01-25T01:50:06.714Z,6.80
2023-01-25T01:55:18.264Z,6.90
2023-01-25T02:00:30.818Z,6.90
2023-01-25T02:05:41.414Z,6.90
2023-01-25T02:10:44.750Z,6.90
2023-01-25T02:15:50.320Z,6.80
2023-01-25T02:20:54.086Z,6.80
2023-01-25T02:25:58.822Z,6.90
2023-01-25T02:31:00.645Z,6.90
2023-01-25T02:36:10.748Z,6.90
2023-01-25T02:41:18.567Z,6.90
2023-01-25T02:46:31.688Z,6.90
2023-01-25T02:51:36.126Z,6.90
2023-01-25T02:56:40.699Z,6.90
2023-01-25T03:01:43.701Z,6.90
2023-01-25T03:06:45.684Z,6.80
2023-01-25T03:11:47.670Z,6.80
2023-01-25T03:16:53.293Z,6.80
2023-01-25T03:21:59.061Z,6.90
2023-01-25T03:27:11.777Z,6.90
2023-01-25T03:32:26.649Z,6.80
2023-01-25T03:37:31.225Z,6.80
2023-01-25T03:42:33.949Z,6.70
2023-01-25T03:47:36.070Z,6.60
2023-01-25T03:52:42.092Z,6.60
2023-01-25T03:57:44.663Z,6.60
2023-01-25T04:02:47.271Z,6.60
2023-01-25T04:07:52.503Z,6.60
2023-01-25T04:13:02.828Z,6.60
2023-01-25T04:18:04.942Z,6.60
2023-01-25T04:23:07.140Z,6.60
2023-01-25T04:28:12.435Z,6.50
2023-01-25T04:33:14.637Z,6.60
2023-01-25T04:38:18.668Z,6.60
2023-01-25T04:43:22.172Z,6.50
2023-01-25T04:48:29.255Z,6.50
2023-01-25T04:53:35.312Z,6.50
2023-01-25T04:58:39.841Z,6.60
2023-01-25T05:03:41.846Z,6.60
2023-01-25T05:08:52.879Z,6.60
2023-01-25T05:13:55.450Z,6.50
2023-01-25T05:19:03.280Z,6.60
2023-01-25T05:24:17.734Z,6.60
2023-01-25T05:29:19.779Z,6.50
2023-01-25T05:34:39.698Z,6.50
2023-01-25T05:39:41.985Z,6.50
2023-01-25T05:44:47.076Z,6.50
2023-01-25T05:49:50.049Z,6.50
2023-01-25T05:55:09.897Z,6.50
2023-01-25T06:00:12.986Z,6.50
2023-01-25T06:05:18.011Z,6.50
2023-01-25T06:10:20.002Z,6.50
2023-01-25T06:15:25.029Z,6.50
2023-01-25T06:20:28.181Z,6.50
2023-01-25T06:25:42.401Z,6.50
2023-01-25T06:30:44.340Z,6.50
2023-01-25T06:35:46.346Z,6.50
2023-01-25T06:40:48.844Z,6.50
2023-01-25T06:45:50.881Z,6.40
2023-01-25T06:50:58.728Z,6.50
2023-01-25T06:56:03.236Z,6.50
2023-01-25T07:01:12.892Z,6.50
2023-01-25T07:06:15.113Z,6.40
2023-01-25T07:11:19.027Z,6.40
2023-01-25T07:16:21.770Z,6.40
2023-01-25T07:21:23.998Z,6.30
2023-01-25T07:26:26.686Z,6.40
2023-01-25T07:31:29.178Z,6.40
2023-01-25T07:36:31.637Z,6.50
2023-01-25T07:41:33.976Z,6.50
2023-01-25T07:46:36.845Z,6.50
2023-01-25T07:51:39.075Z,6.50
2023-01-25T07:56:41.218Z,6.50
2023-01-25T08:01:43.468Z,6.60
2023-01-25T08:06:46.736Z,6.50
2023-01-25T08:11:49.624Z,6.60
2023-01-25T08:16:51.780Z,6.50
2023-01-25T08:21:54.079Z,6.40
2023-01-25T08:26:56.447Z,6.40
2023-01-25T08:31:58.916Z,6.40
2023-01-25T08:37:01.151Z,6.40
2023-01-25T08:42:03.343Z,6.40
2023-01-25T08:47:05.596Z,6.40
2023-01-25T08:52:07.812Z,6.50
2023-01-25T08:57:10.025Z,6.50
2023-01-25T09:02:12.829Z,6.50
2023-01-25T09:07:14.817Z,6.50
2023-01-25T09:12:16.813Z,6.60
2023-01-25T09:17:19.016Z,6.60
2023-01-25T09:22:20.943Z,6.60
2023-01-25T09:27:22.809Z,6.60
2023-01-25T09:32:24.737Z,6.60
2023-01-25T09:37:30.248Z,6.70
2023-01-25T09:43:01.258Z,6.80
2023-01-25T09:48:14.279Z,6.70
2023-01-25T09:53:49.992Z,6.70
2023-01-25T09:59:05.081Z,6.70
2023-01-25T10:04:21.243Z,6.60
2023-01-25T10:09:35.091Z,6.60
2023-01-25T10:14:37.444Z,6.60
2023-01-25T10:19:48.525Z,6.70
2023-01-25T10:25:12.130Z,6.70
2023-01-25T10:30:35.360Z,6.80
2023-01-25T10:35:45.725Z,6.80
2023-01-25T10:40:58.418Z,6.70
2023-01-25T10:46:01.597Z,6.70
2023-01-25T10:51:03.773Z,6.70
2023-01-25T10:56:11.440Z,6.80
2023-01-25T11:01:27.161Z,6.70
2023-01-25T11:06:47.237Z,6.80
2023-01-25T11:11:56.525Z,6.70
2023-01-25T11:17:00.610Z,6.70
2023-01-25T11:22:06.018Z,6.60
2023-01-25T11:27:20.607Z,6.70
2023-01-25T11:32:25.133Z,6.60
2023-01-25T11:37:55.036Z,6.60
2023-01-25T11:43:23.924Z,6.60
2023-01-25T11:48:50.579Z,6.60
2023-01-25T11:54:33.814Z,6.60
2023-01-25T12:00:05.463Z,6.60
2023-01-25T12:05:21.025Z,6.60
2023-01-25T12:10:38.668Z,6.60
2023-01-25T12:15:46.747Z,6.60
2023-01-25T12:21:02.626Z,6.60
2023-01-25T12:26:17.467Z,6.60
2023-01-25T12:31:24.980Z,6.70
2023-01-25T12:36:45.936Z,6.60
2023-01-25T12:42:16.573Z,6.70
2023-01-25T12:47:48.106Z,6.60
2023-01-25T12:53:01.707Z,6.60
2023-01-25T12:58:37.474Z,6.60
2023-01-25T13:04:01.796Z,6.60
2023-01-25T13:09:15.800Z,6.60
2023-01-25T13:14:17.777Z,6.60
2023-01-25T13:19:19.613Z,6.60
2023-01-25T13:24:21.757Z,6.50
2023-01-25T13:29:38.659Z,6.50
2023-01-25T13:34:44.264Z,6.50
2023-01-25T13:39:48.222Z,6.40
2023-01-25T13:44:59.861Z,6.40
2023-01-25T13:50:21.604Z,6.40
2023-01-25T13:55:23.853Z,6.40
2023-01-25T14:00:25.906Z,6.30
2023-01-25T14:05:27.868Z,6.40
2023-01-25T14:10:29.842Z,6.40
2023-01-25T14:15:32.922Z,6.40
2023-01-25T14:20:34.821Z,6.50
2023-01-25T14:25:40.832Z,6.50
2023-01-25T14:30:43.162Z,6.50
2023-01-25T14:35:54.741Z,6.50
2023-01-25T14:41:59.228Z,6.50
2023-01-25T14:47:31.444Z,6.50
2023-01-25T14:52:33.307Z,6.50
2023-01-25T14:57:40.740Z,6.50
2023-01-25T15:02:56.248Z,6.50
2023-01-25T15:08:07.642Z,6.50
2023-01-25T15:13:14.506Z,6.50
2023-01-25T15:18:55.048Z,6.50
2023-01-25T15:24:04.677Z,6.50
2023-01-25T15:29:17.844Z,6.40
2023-01-25T15:34:24.989Z,6.50
2023-01-25T15:39:27.260Z,6.50
2023-01-25T15:44:29.126Z,6.40
2023-01-25T15:49:36.974Z,6.50
2023-01-25T15:54:40.839Z,6.40
2023-01-25T15:59:45.967Z,6.40
2023-01-25T16:04:49.560Z,6.40
2023-01-25T16:09:51.810Z,6.40
2023-01-25T16:14:53.755Z,6.40
2023-01-25T16:19:55.602Z,6.30
2023-01-25T16:24:57.601Z,6.30
2023-01-25T16:29:59.491Z,6.30
2023-01-25T16:35:01.376Z,6.30
2023-01-25T16:40:08.513Z,6.20
2023-01-25T16:45:18.799Z,6.20
2023-01-25T16:50:36.713Z,6.20
2023-01-25T16:55:43.865Z,6.30
2023-01-25T17:00:47.861Z,6.30
2023-01-25T17:05:52.919Z,6.30
2023-01-25T17:10:57.479Z,6.30
2023-01-25T17:16:01.189Z,6.30
2023-01-25T17:21:06.731Z,6.30
2023-01-25T17:26:12.367Z,6.40
2023-01-25T17:31:17.443Z,6.40
2023-01-25T17:36:20.289Z,6.40
2023-01-25T17:41:24.042Z,6.50
2023-01-25T17:46:33.489Z,6.50
2023-01-25T17:51:36.704Z,6.50
2023-01-25T17:56:39.876Z,6.50
2023-01-25T18:01:43.196Z,6.50
2023-01-25T18:06:49.755Z,6.50
2023-01-25T18:11:54.722Z,6.50
2023-01-25T18:17:00.020Z,6.50
2023-01-25T18:22:02.633Z,6.50
2023-01-25T18:27:26.784Z,6.40
2023-01-25T18:37:52.556Z,6.30
2023-01-25T18:42:55.141Z,6.30
2023-01-25T18:47:57.844Z,6.20
2023-01-25T18:53:02.680Z,6.30
2023-01-25T18:58:05.993Z,6.30
2023-01-25T19:03:08.721Z,6.20
2023-01-25T19:08:11.223Z,6.20
2023-01-25T19:13:15.120Z,6.10
2023-01-25T19:18:19.897Z,6.20
2023-01-25T19:23:22.324Z,6.20
2023-01-25T19:28:25.048Z,6.10
2023-01-25T19:33:27.682Z,6.10
2023-01-25T19:44:40.925Z,6.20
2023-01-25T20:40:41.309Z,5.90
2023-01-25T20:45:52.060Z,5.80
2023-01-25T20:56:59.629Z,6.00
2023-01-25T21:02:03.692Z,6.00
2023-01-25T21:26:38.912Z,5.80
2023-01-25T21:31:44.053Z,5.60
2023-01-25T21:36:46.339Z,5.60
2023-01-25T21:41:48.584Z,5.60
2023-01-25T21:58:55.576Z,5.60
2023-01-25T22:09:49.602Z,5.80
2023-01-25T22:28:14.387Z,5.70
2023-01-25T23:20:55.271Z,5.50
2023-01-25T23:26:01.509Z,5.60
2023-01-25T23:31:16.887Z,5.50
2023-01-25T23:36:27.317Z,5.50
2023-01-25T23:41:30.857Z,5.50
2023-01-25T23:46:32.961Z,5.50
2023-01-25T23:51:34.853Z,5.50
2023-01-25T23:56:36.712Z,5.50
